KYKM/YKM METAR and TAF weather

Enter ICAO airport designator
Station Type Date Time Source
KYKM METAR 2022/11/30 23:53 UTC NOAA

KYKM 302353Z AUTO 00000KT 8SM CLR M01/M04 A2949 RMK AO2 SLP997 T10111039 10017 21033 56009


Station Type Date Time Source
KYKM Decoded METAR 2022/11/30 23:53 UTC NOAA

YAKIMA AIR TERMINAL, WA, United States (KYKM) 46-34N 120-32W 324M
Nov 30, 2022 - 06:53 PM EST / 2022.11.30 2353 UTC
Wind: Calm:0
Visibility: 8 mile(s):0
Sky conditions: clear
Temperature: 30.0 F (-1.1 C)
Dew Point: 25.0 F (-3.9 C)
Relative Humidity: 81%
Pressure (altimeter): 29.49 in. Hg (998 hPa)
Pressure tendency: 0.03 inches (0.9 hPa) lower than three hours ago
ob: KYKM 302353Z AUTO 00000KT 8SM CLR M01/M04 A2949 RMK AO2 SLP997 T10111039 10017 21033 56009
cycle: 0

Station Type Date Time Source
KYKM TAF 2022/11/30 20:58 UTC NOAA

TAF
AMD KYKM 301957Z 3020/0118 VRB03KT P6SM BKN120
FM010100 23002KT 2SM BR OVC010
FM010800 24002KT 5SM BR OVC015

Example: see airport list